sensor_id;sensor_type;location;lat;lon;timestamp;P1;durP1;ratioP1;P2;durP2;ratioP2
11222;SDS011;5668;52.012;8.724;2022-08-07T00:02:11;2.40;;;1.70;;
11222;SDS011;5668;52.012;8.724;2022-08-07T00:04:39;1.70;;;1.60;;
11222;SDS011;5668;52.012;8.724;2022-08-07T00:07:08;1.60;;;1.50;;
11222;SDS011;5668;52.012;8.724;2022-08-07T00:09:35;2.22;;;2.00;;
11222;SDS011;5668;52.012;8.724;2022-08-07T00:12:03;1.70;;;1.60;;
11222;SDS011;5668;52.012;8.724;2022-08-07T00:14:31;2.07;;;1.87;;
11222;SDS011;5668;52.012;8.724;2022-08-07T00:16:59;2.53;;;1.80;;
11222;SDS011;5668;52.012;8.724;2022-08-07T00:19:28;3.23;;;1.93;;
11222;SDS011;5668;52.012;8.724;2022-08-07T00:21:56;2.60;;;2.10;;
11222;SDS011;5668;52.012;8.724;2022-08-07T00:24:23;3.43;;;2.30;;
11222;SDS011;5668;52.012;8.724;2022-08-07T00:26:50;2.20;;;2.00;;
11222;SDS011;5668;52.012;8.724;2022-08-07T00:29:18;3.47;;;2.20;;
11222;SDS011;5668;52.012;8.724;2022-08-07T00:31:50;3.17;;;2.30;;
11222;SDS011;5668;52.012;8.724;2022-08-07T00:34:18;3.90;;;2.30;;
11222;SDS011;5668;52.012;8.724;2022-08-07T00:36:47;3.65;;;2.42;;
11222;SDS011;5668;52.012;8.724;2022-08-07T00:39:14;2.28;;;2.03;;
11222;SDS011;5668;52.012;8.724;2022-08-07T00:41:47;2.40;;;2.10;;
11222;SDS011;5668;52.012;8.724;2022-08-07T00:44:15;3.57;;;2.33;;
11222;SDS011;5668;52.012;8.724;2022-08-07T00:46:42;2.70;;;2.20;;
11222;SDS011;5668;52.012;8.724;2022-08-07T00:49:10;3.90;;;2.00;;
11222;SDS011;5668;52.012;8.724;2022-08-07T00:51:37;2.97;;;2.10;;
11222;SDS011;5668;52.012;8.724;2022-08-07T00:54:06;2.87;;;2.43;;
11222;SDS011;5668;52.012;8.724;2022-08-07T00:56:33;3.60;;;2.00;;
11222;SDS011;5668;52.012;8.724;2022-08-07T00:59:01;2.57;;;2.07;;
11222;SDS011;5668;52.012;8.724;2022-08-07T01:01:29;2.28;;;2.08;;
11222;SDS011;5668;52.012;8.724;2022-08-07T01:03:57;3.13;;;2.20;;
11222;SDS011;5668;52.012;8.724;2022-08-07T01:06:24;3.38;;;2.10;;
11222;SDS011;5668;52.012;8.724;2022-08-07T01:08:52;3.60;;;1.73;;
11222;SDS011;5668;52.012;8.724;2022-08-07T01:11:21;1.60;;;1.50;;
11222;SDS011;5668;52.012;8.724;2022-08-07T01:13:49;1.37;;;1.27;;
11222;SDS011;5668;52.012;8.724;2022-08-07T01:16:16;1.47;;;1.37;;
11222;SDS011;5668;52.012;8.724;2022-08-07T01:18:43;2.37;;;1.70;;
11222;SDS011;5668;52.012;8.724;2022-08-07T01:21:13;4.37;;;1.53;;
11222;SDS011;5668;52.012;8.724;2022-08-07T01:23:41;2.57;;;1.80;;
11222;SDS011;5668;52.012;8.724;2022-08-07T01:26:11;1.83;;;1.73;;
11222;SDS011;5668;52.012;8.724;2022-08-07T01:28:40;2.80;;;1.90;;
11222;SDS011;5668;52.012;8.724;2022-08-07T01:31:08;2.60;;;2.40;;
11222;SDS011;5668;52.012;8.724;2022-08-07T01:33:36;3.97;;;2.00;;
11222;SDS011;5668;52.012;8.724;2022-08-07T01:36:04;2.93;;;2.07;;
11222;SDS011;5668;52.012;8.724;2022-08-07T01:38:34;2.47;;;2.27;;
11222;SDS011;5668;52.012;8.724;2022-08-07T01:41:03;2.10;;;1.90;;
11222;SDS011;5668;52.012;8.724;2022-08-07T01:43:32;2.20;;;1.80;;
11222;SDS011;5668;52.012;8.724;2022-08-07T01:46:01;3.33;;;2.00;;
11222;SDS011;5668;52.012;8.724;2022-08-07T01:48:29;1.90;;;1.60;;
11222;SDS011;5668;52.012;8.724;2022-08-07T01:50:57;2.20;;;1.73;;
11222;SDS011;5668;52.012;8.724;2022-08-07T01:53:27;2.63;;;1.67;;
11222;SDS011;5668;52.012;8.724;2022-08-07T01:56:00;1.73;;;1.53;;
11222;SDS011;5668;52.012;8.724;2022-08-07T01:58:31;2.23;;;1.50;;
11222;SDS011;5668;52.012;8.724;2022-08-07T02:01:03;2.17;;;1.60;;
11222;SDS011;5668;52.012;8.724;2022-08-07T02:03:37;1.60;;;1.50;;
11222;SDS011;5668;52.012;8.724;2022-08-07T02:06:09;2.20;;;1.80;;
11222;SDS011;5668;52.012;8.724;2022-08-07T02:08:40;2.20;;;1.60;;
11222;SDS011;5668;52.012;8.724;2022-08-07T02:11:11;2.07;;;1.63;;
11222;SDS011;5668;52.012;8.724;2022-08-07T02:13:38;1.80;;;1.50;;
11222;SDS011;5668;52.012;8.724;2022-08-07T02:16:08;2.03;;;1.60;;
11222;SDS011;5668;52.012;8.724;2022-08-07T02:18:36;1.80;;;1.70;;
11222;SDS011;5668;52.012;8.724;2022-08-07T02:21:05;3.93;;;1.87;;
11222;SDS011;5668;52.012;8.724;2022-08-07T02:23:34;3.00;;;1.70;;
11222;SDS011;5668;52.012;8.724;2022-08-07T02:26:03;2.00;;;1.60;;
11222;SDS011;5668;52.012;8.724;2022-08-07T02:28:35;3.07;;;1.77;;
11222;SDS011;5668;52.012;8.724;2022-08-07T02:31:04;2.70;;;1.50;;
11222;SDS011;5668;52.012;8.724;2022-08-07T02:33:33;2.70;;;1.50;;
11222;SDS011;5668;52.012;8.724;2022-08-07T02:36:04;2.43;;;1.70;;
11222;SDS011;5668;52.012;8.724;2022-08-07T02:38:34;1.80;;;1.60;;
11222;SDS011;5668;52.012;8.724;2022-08-07T02:41:03;3.23;;;1.50;;
11222;SDS011;5668;52.012;8.724;2022-08-07T02:43:31;2.80;;;1.70;;
11222;SDS011;5668;52.012;8.724;2022-08-07T02:46:03;1.97;;;1.77;;
11222;SDS011;5668;52.012;8.724;2022-08-07T02:48:31;2.13;;;1.93;;
11222;SDS011;5668;52.012;8.724;2022-08-07T02:51:00;3.47;;;1.93;;
11222;SDS011;5668;52.012;8.724;2022-08-07T02:53:32;3.77;;;1.70;;
11222;SDS011;5668;52.012;8.724;2022-08-07T02:56:00;2.37;;;1.80;;
11222;SDS011;5668;52.012;8.724;2022-08-07T02:58:29;1.77;;;1.47;;
11222;SDS011;5668;52.012;8.724;2022-08-07T03:01:00;1.77;;;1.50;;
11222;SDS011;5668;52.012;8.724;2022-08-07T03:03:30;2.30;;;1.60;;
11222;SDS011;5668;52.012;8.724;2022-08-07T03:05:58;2.00;;;1.80;;
11222;SDS011;5668;52.012;8.724;2022-08-07T03:08:27;1.50;;;1.40;;
11222;SDS011;5668;52.012;8.724;2022-08-07T03:10:55;3.07;;;1.90;;
11222;SDS011;5668;52.012;8.724;2022-08-07T03:13:24;1.70;;;1.60;;
11222;SDS011;5668;52.012;8.724;2022-08-07T03:15:51;2.37;;;1.97;;
11222;SDS011;5668;52.012;8.724;2022-08-07T03:18:21;1.73;;;1.63;;
11222;SDS011;5668;52.012;8.724;2022-08-07T03:20:49;2.60;;;1.80;;
11222;SDS011;5668;52.012;8.724;2022-08-07T03:23:16;2.83;;;1.63;;
11222;SDS011;5668;52.012;8.724;2022-08-07T03:25:45;2.13;;;1.83;;
11222;SDS011;5668;52.012;8.724;2022-08-07T03:28:15;2.37;;;1.77;;
11222;SDS011;5668;52.012;8.724;2022-08-07T03:30:45;1.77;;;1.67;;
11222;SDS011;5668;52.012;8.724;2022-08-07T03:33:13;1.60;;;1.50;;
11222;SDS011;5668;52.012;8.724;2022-08-07T03:35:43;2.73;;;1.60;;
11222;SDS011;5668;52.012;8.724;2022-08-07T03:38:12;2.83;;;1.53;;
11222;SDS011;5668;52.012;8.724;2022-08-07T03:40:42;1.90;;;1.53;;
11222;SDS011;5668;52.012;8.724;2022-08-07T03:43:10;2.07;;;1.70;;
11222;SDS011;5668;52.012;8.724;2022-08-07T03:45:38;2.17;;;1.63;;
11222;SDS011;5668;52.012;8.724;2022-08-07T03:48:05;2.13;;;1.70;;
11222;SDS011;5668;52.012;8.724;2022-08-07T03:50:33;1.77;;;1.53;;
11222;SDS011;5668;52.012;8.724;2022-08-07T03:53:02;3.53;;;1.93;;
11222;SDS011;5668;52.012;8.724;2022-08-07T03:55:30;1.93;;;1.70;;
11222;SDS011;5668;52.012;8.724;2022-08-07T03:57:58;2.60;;;1.57;;
11222;SDS011;5668;52.012;8.724;2022-08-07T04:00:26;1.90;;;1.80;;
11222;SDS011;5668;52.012;8.724;2022-08-07T04:02:55;2.33;;;1.80;;
11222;SDS011;5668;52.012;8.724;2022-08-07T04:05:23;1.77;;;1.67;;
11222;SDS011;5668;52.012;8.724;2022-08-07T04:07:50;1.90;;;1.60;;
11222;SDS011;5668;52.012;8.724;2022-08-07T04:10:19;2.70;;;1.50;;
11222;SDS011;5668;52.012;8.724;2022-08-07T04:12:47;1.90;;;1.70;;
11222;SDS011;5668;52.012;8.724;2022-08-07T04:15:15;1.67;;;1.57;;
11222;SDS011;5668;52.012;8.724;2022-08-07T04:17:44;1.67;;;1.53;;
11222;SDS011;5668;52.012;8.724;2022-08-07T04:20:12;1.87;;;1.60;;
11222;SDS011;5668;52.012;8.724;2022-08-07T04:22:40;1.80;;;1.50;;
11222;SDS011;5668;52.012;8.724;2022-08-07T04:25:08;3.10;;;1.63;;
11222;SDS011;5668;52.012;8.724;2022-08-07T04:27:37;2.23;;;1.80;;
11222;SDS011;5668;52.012;8.724;2022-08-07T04:30:05;2.10;;;1.77;;
11222;SDS011;5668;52.012;8.724;2022-08-07T04:32:33;2.87;;;1.80;;
11222;SDS011;5668;52.012;8.724;2022-08-07T04:35:02;2.40;;;1.80;;
11222;SDS011;5668;52.012;8.724;2022-08-07T04:37:31;2.93;;;1.60;;
11222;SDS011;5668;52.012;8.724;2022-08-07T04:39:59;2.40;;;1.70;;
11222;SDS011;5668;52.012;8.724;2022-08-07T04:42:26;2.97;;;1.83;;
11222;SDS011;5668;52.012;8.724;2022-08-07T04:44:57;2.00;;;1.80;;
11222;SDS011;5668;52.012;8.724;2022-08-07T04:47:28;2.50;;;1.83;;
11222;SDS011;5668;52.012;8.724;2022-08-07T04:50:02;4.10;;;1.73;;
11222;SDS011;5668;52.012;8.724;2022-08-07T04:52:38;2.40;;;1.67;;
11222;SDS011;5668;52.012;8.724;2022-08-07T04:55:12;2.17;;;1.97;;
11222;SDS011;5668;52.012;8.724;2022-08-07T04:57:48;3.23;;;1.90;;
11222;SDS011;5668;52.012;8.724;2022-08-07T05:00:24;2.00;;;1.63;;
11222;SDS011;5668;52.012;8.724;2022-08-07T05:03:08;2.30;;;1.70;;
11222;SDS011;5668;52.012;8.724;2022-08-07T05:05:44;1.77;;;1.67;;
11222;SDS011;5668;52.012;8.724;2022-08-07T05:08:17;3.67;;;1.80;;
11222;SDS011;5668;52.012;8.724;2022-08-07T05:10:50;3.30;;;1.60;;
11222;SDS011;5668;52.012;8.724;2022-08-07T05:13:24;3.03;;;2.20;;
11222;SDS011;5668;52.012;8.724;2022-08-07T05:16:02;2.80;;;1.97;;
11222;SDS011;5668;52.012;8.724;2022-08-07T05:18:33;2.20;;;1.93;;
11222;SDS011;5668;52.012;8.724;2022-08-07T05:21:07;2.47;;;2.10;;
11222;SDS011;5668;52.012;8.724;2022-08-07T05:23:37;2.30;;;1.83;;
11222;SDS011;5668;52.012;8.724;2022-08-07T05:26:09;2.30;;;2.10;;
11222;SDS011;5668;52.012;8.724;2022-08-07T05:28:39;2.20;;;2.00;;
11222;SDS011;5668;52.012;8.724;2022-08-07T05:31:09;2.50;;;2.27;;
11222;SDS011;5668;52.012;8.724;2022-08-07T05:33:38;2.30;;;2.10;;
11222;SDS011;5668;52.012;8.724;2022-08-07T05:36:08;2.27;;;2.00;;
11222;SDS011;5668;52.012;8.724;2022-08-07T05:38:37;2.43;;;2.23;;
11222;SDS011;5668;52.012;8.724;2022-08-07T05:41:06;2.97;;;2.40;;
11222;SDS011;5668;52.012;8.724;2022-08-07T05:43:34;3.60;;;2.30;;
11222;SDS011;5668;52.012;8.724;2022-08-07T05:46:03;2.57;;;1.97;;
11222;SDS011;5668;52.012;8.724;2022-08-07T05:48:32;3.20;;;2.53;;
11222;SDS011;5668;52.012;8.724;2022-08-07T05:51:04;2.57;;;2.37;;
11222;SDS011;5668;52.012;8.724;2022-08-07T05:53:34;3.07;;;2.17;;
11222;SDS011;5668;52.012;8.724;2022-08-07T05:56:02;2.63;;;2.20;;
11222;SDS011;5668;52.012;8.724;2022-08-07T05:58:30;4.13;;;2.30;;
11222;SDS011;5668;52.012;8.724;2022-08-07T06:01:00;2.20;;;2.00;;
11222;SDS011;5668;52.012;8.724;2022-08-07T06:06:19;2.60;;;2.40;;
11222;SDS011;5668;52.012;8.724;2022-08-07T06:08:48;3.23;;;2.10;;
11222;SDS011;5668;52.012;8.724;2022-08-07T06:11:16;3.20;;;2.47;;
11222;SDS011;5668;52.012;8.724;2022-08-07T06:13:43;2.50;;;2.10;;
11222;SDS011;5668;52.012;8.724;2022-08-07T06:16:11;2.70;;;2.20;;
11222;SDS011;5668;52.012;8.724;2022-08-07T06:18:40;2.40;;;2.20;;
11222;SDS011;5668;52.012;8.724;2022-08-07T06:23:59;3.53;;;2.33;;
11222;SDS011;5668;52.012;8.724;2022-08-07T06:26:26;2.93;;;2.13;;
11222;SDS011;5668;52.012;8.724;2022-08-07T06:28:54;3.00;;;2.63;;
11222;SDS011;5668;52.012;8.724;2022-08-07T06:31:24;2.50;;;2.30;;
11222;SDS011;5668;52.012;8.724;2022-08-07T06:33:53;3.05;;;2.60;;
11222;SDS011;5668;52.012;8.724;2022-08-07T06:36:20;2.53;;;2.33;;
11222;SDS011;5668;52.012;8.724;2022-08-07T06:38:52;3.90;;;2.53;;
11222;SDS011;5668;52.012;8.724;2022-08-07T06:41:20;3.00;;;2.70;;
11222;SDS011;5668;52.012;8.724;2022-08-07T06:43:52;4.57;;;2.80;;
11222;SDS011;5668;52.012;8.724;2022-08-07T06:46:21;2.85;;;2.65;;
11222;SDS011;5668;52.012;8.724;2022-08-07T06:48:49;3.45;;;2.90;;
11222;SDS011;5668;52.012;8.724;2022-08-07T06:51:19;3.53;;;2.45;;
11222;SDS011;5668;52.012;8.724;2022-08-07T06:53:50;4.28;;;2.58;;
11222;SDS011;5668;52.012;8.724;2022-08-07T06:56:27;2.88;;;2.67;;
11222;SDS011;5668;52.012;8.724;2022-08-07T06:59:11;3.00;;;2.70;;
11222;SDS011;5668;52.012;8.724;2022-08-07T07:01:40;3.10;;;2.80;;
11222;SDS011;5668;52.012;8.724;2022-08-07T07:04:10;3.35;;;2.97;;
11222;SDS011;5668;52.012;8.724;2022-08-07T07:06:38;2.83;;;2.60;;
11222;SDS011;5668;52.012;8.724;2022-08-07T07:09:17;3.53;;;2.28;;
11222;SDS011;5668;52.012;8.724;2022-08-07T07:11:52;3.20;;;2.70;;
11222;SDS011;5668;52.012;8.724;2022-08-07T07:17:20;2.85;;;2.55;;
11222;SDS011;5668;52.012;8.724;2022-08-07T07:19:52;3.85;;;2.38;;
11222;SDS011;5668;52.012;8.724;2022-08-07T07:22:22;3.40;;;2.50;;
11222;SDS011;5668;52.012;8.724;2022-08-07T07:24:53;4.75;;;2.70;;
11222;SDS011;5668;52.012;8.724;2022-08-07T07:27:28;2.72;;;2.50;;
11222;SDS011;5668;52.012;8.724;2022-08-07T07:30:01;4.07;;;2.58;;
11222;SDS011;5668;52.012;8.724;2022-08-07T07:32:32;4.35;;;2.67;;
11222;SDS011;5668;52.012;8.724;2022-08-07T07:35:04;2.85;;;2.65;;
11222;SDS011;5668;52.012;8.724;2022-08-07T07:37:35;2.42;;;2.13;;
11222;SDS011;5668;52.012;8.724;2022-08-07T07:40:11;2.70;;;2.38;;
11222;SDS011;5668;52.012;8.724;2022-08-07T07:42:43;2.25;;;2.05;;
11222;SDS011;5668;52.012;8.724;2022-08-07T07:45:15;3.10;;;2.80;;
11222;SDS011;5668;52.012;8.724;2022-08-07T07:47:48;2.38;;;2.17;;
11222;SDS011;5668;52.012;8.724;2022-08-07T07:50:21;2.47;;;2.13;;
11222;SDS011;5668;52.012;8.724;2022-08-07T07:52:54;3.17;;;2.22;;
11222;SDS011;5668;52.012;8.724;2022-08-07T07:55:33;2.33;;;2.13;;
11222;SDS011;5668;52.012;8.724;2022-08-07T07:58:02;4.50;;;2.40;;
11222;SDS011;5668;52.012;8.724;2022-08-07T08:00:33;2.50;;;2.30;;
11222;SDS011;5668;52.012;8.724;2022-08-07T08:03:04;3.30;;;2.38;;
11222;SDS011;5668;52.012;8.724;2022-08-07T08:05:39;3.25;;;2.28;;
11222;SDS011;5668;52.012;8.724;2022-08-07T08:08:09;5.30;;;2.20;;
11222;SDS011;5668;52.012;8.724;2022-08-07T08:10:40;2.20;;;2.00;;
11222;SDS011;5668;52.012;8.724;2022-08-07T08:13:08;2.90;;;1.92;;
11222;SDS011;5668;52.012;8.724;2022-08-07T08:15:39;2.53;;;2.20;;
11222;SDS011;5668;52.012;8.724;2022-08-07T08:18:10;3.05;;;2.15;;
11222;SDS011;5668;52.012;8.724;2022-08-07T08:20:39;3.45;;;2.15;;
11222;SDS011;5668;52.012;8.724;2022-08-07T08:23:09;1.80;;;1.70;;
11222;SDS011;5668;52.012;8.724;2022-08-07T08:26:02;3.85;;;1.92;;
11222;SDS011;5668;52.012;8.724;2022-08-07T08:28:45;1.77;;;1.67;;
11222;SDS011;5668;52.012;8.724;2022-08-07T08:31:19;2.42;;;2.10;;
11222;SDS011;5668;52.012;8.724;2022-08-07T08:33:50;1.50;;;1.40;;
11222;SDS011;5668;52.012;8.724;2022-08-07T08:36:21;1.88;;;1.75;;
11222;SDS011;5668;52.012;8.724;2022-08-07T08:38:52;2.00;;;1.48;;
11222;SDS011;5668;52.012;8.724;2022-08-07T08:41:28;1.60;;;1.50;;
11222;SDS011;5668;52.012;8.724;2022-08-07T08:44:06;2.70;;;1.75;;
11222;SDS011;5668;52.012;8.724;2022-08-07T08:46:43;1.45;;;1.20;;
11222;SDS011;5668;52.012;8.724;2022-08-07T08:49:22;1.60;;;1.30;;
11222;SDS011;5668;52.012;8.724;2022-08-07T08:52:00;1.23;;;1.10;;
11222;SDS011;5668;52.012;8.724;2022-08-07T08:54:37;2.13;;;1.30;;
11222;SDS011;5668;52.012;8.724;2022-08-07T08:57:12;1.88;;;1.20;;
11222;SDS011;5668;52.012;8.724;2022-08-07T08:59:52;1.05;;;0.95;;
11222;SDS011;5668;52.012;8.724;2022-08-07T09:02:37;2.15;;;1.27;;
11222;SDS011;5668;52.012;8.724;2022-08-07T09:05:25;2.25;;;1.20;;
11222;SDS011;5668;52.012;8.724;2022-08-07T09:08:03;0.95;;;0.85;;
11222;SDS011;5668;52.012;8.724;2022-08-07T09:10:47;1.20;;;1.10;;
11222;SDS011;5668;52.012;8.724;2022-08-07T09:13:29;1.52;;;0.90;;
11222;SDS011;5668;52.012;8.724;2022-08-07T09:16:03;1.52;;;0.90;;
11222;SDS011;5668;52.012;8.724;2022-08-07T09:25:09;0.98;;;0.68;;
11222;SDS011;5668;52.012;8.724;2022-08-07T09:27:43;0.68;;;0.68;;
11222;SDS011;5668;52.012;8.724;2022-08-07T09:30:21;0.77;;;0.68;;
11222;SDS011;5668;52.012;8.724;2022-08-07T09:32:57;1.17;;;0.57;;
11222;SDS011;5668;52.012;8.724;2022-08-07T09:35:39;0.70;;;0.57;;
11222;SDS011;5668;52.012;8.724;2022-08-07T09:38:18;0.50;;;0.50;;
11222;SDS011;5668;52.012;8.724;2022-08-07T09:40:56;0.63;;;0.55;;
11222;SDS011;5668;52.012;8.724;2022-08-07T09:43:41;0.82;;;0.60;;
11222;SDS011;5668;52.012;8.724;2022-08-07T09:46:25;0.60;;;0.50;;
11222;SDS011;5668;52.012;8.724;2022-08-07T09:49:04;0.93;;;0.60;;
11222;SDS011;5668;52.012;8.724;2022-08-07T09:51:58;0.90;;;0.60;;
11222;SDS011;5668;52.012;8.724;2022-08-07T09:54:33;1.23;;;0.50;;
11222;SDS011;5668;52.012;8.724;2022-08-07T10:00:05;1.48;;;0.73;;
11222;SDS011;5668;52.012;8.724;2022-08-07T10:12:03;1.63;;;0.60;;
11222;SDS011;5668;52.012;8.724;2022-08-07T10:17:47;1.00;;;0.70;;
11222;SDS011;5668;52.012;8.724;2022-08-07T10:20:33;1.13;;;0.60;;
11222;SDS011;5668;52.012;8.724;2022-08-07T10:23:26;1.00;;;0.68;;
11222;SDS011;5668;52.012;8.724;2022-08-07T10:26:19;1.02;;;0.50;;
11222;SDS011;5668;52.012;8.724;2022-08-07T10:28:58;1.15;;;0.65;;
11222;SDS011;5668;52.012;8.724;2022-08-07T10:31:49;0.68;;;0.60;;
11222;SDS011;5668;52.012;8.724;2022-08-07T10:34:45;0.80;;;0.68;;
11222;SDS011;5668;52.012;8.724;2022-08-07T10:37:26;0.90;;;0.60;;
11222;SDS011;5668;52.012;8.724;2022-08-07T10:40:05;0.93;;;0.60;;
11222;SDS011;5668;52.012;8.724;2022-08-07T10:42:39;1.73;;;0.60;;
11222;SDS011;5668;52.012;8.724;2022-08-07T10:45:21;1.08;;;0.70;;
11222;SDS011;5668;52.012;8.724;2022-08-07T10:47:58;1.20;;;0.50;;
11222;SDS011;5668;52.012;8.724;2022-08-07T10:50:34;2.95;;;0.93;;
11222;SDS011;5668;52.012;8.724;2022-08-07T10:53:09;1.23;;;0.82;;
11222;SDS011;5668;52.012;8.724;2022-08-07T10:55:45;1.23;;;0.60;;
11222;SDS011;5668;52.012;8.724;2022-08-07T11:01:38;0.90;;;0.60;;
11222;SDS011;5668;52.012;8.724;2022-08-07T11:04:16;0.70;;;0.63;;
11222;SDS011;5668;52.012;8.724;2022-08-07T11:07:00;0.95;;;0.60;;
11222;SDS011;5668;52.012;8.724;2022-08-07T11:09:38;0.65;;;0.50;;
11222;SDS011;5668;52.012;8.724;2022-08-07T11:12:22;0.98;;;0.70;;
11222;SDS011;5668;52.012;8.724;2022-08-07T11:14:54;1.10;;;0.70;;
11222;SDS011;5668;52.012;8.724;2022-08-07T11:17:29;1.73;;;0.63;;
11222;SDS011;5668;52.012;8.724;2022-08-07T11:20:03;0.93;;;0.65;;
11222;SDS011;5668;52.012;8.724;2022-08-07T11:22:35;0.77;;;0.50;;
11222;SDS011;5668;52.012;8.724;2022-08-07T11:25:15;1.30;;;0.60;;
11222;SDS011;5668;52.012;8.724;2022-08-07T11:27:47;4.10;;;0.50;;
11222;SDS011;5668;52.012;8.724;2022-08-07T11:33:50;0.70;;;0.60;;
11222;SDS011;5668;52.012;8.724;2022-08-07T11:36:29;1.85;;;0.57;;
11222;SDS011;5668;52.012;8.724;2022-08-07T11:39:08;1.08;;;0.70;;
11222;SDS011;5668;52.012;8.724;2022-08-07T11:41:54;0.60;;;0.57;;
11222;SDS011;5668;52.012;8.724;2022-08-07T11:44:31;0.60;;;0.50;;
11222;SDS011;5668;52.012;8.724;2022-08-07T11:47:08;1.30;;;0.70;;
11222;SDS011;5668;52.012;8.724;2022-08-07T11:49:54;0.57;;;0.50;;
11222;SDS011;5668;52.012;8.724;2022-08-07T11:52:45;1.50;;;0.68;;
11222;SDS011;5668;52.012;8.724;2022-08-07T11:55:36;0.55;;;0.38;;
11222;SDS011;5668;52.012;8.724;2022-08-07T11:58:18;0.68;;;0.60;;
11222;SDS011;5668;52.012;8.724;2022-08-07T14:09:17;1.13;;;0.60;;
11222;SDS011;5668;52.012;8.724;2022-08-07T16:26:27;1.70;;;0.77;;
11222;SDS011;5668;52.012;8.724;2022-08-07T16:29:17;0.60;;;0.60;;
11222;SDS011;5668;52.012;8.724;2022-08-07T16:31:54;0.80;;;0.63;;
11222;SDS011;5668;52.012;8.724;2022-08-07T16:34:26;1.15;;;0.82;;
11222;SDS011;5668;52.012;8.724;2022-08-07T16:37:11;1.33;;;0.70;;
11222;SDS011;5668;52.012;8.724;2022-08-07T16:43:40;3.15;;;0.90;;
11222;SDS011;5668;52.012;8.724;2022-08-07T16:46:45;0.75;;;0.60;;
11222;SDS011;5668;52.012;8.724;2022-08-07T16:49:39;0.90;;;0.80;;
11222;SDS011;5668;52.012;8.724;2022-08-07T16:55:51;1.00;;;0.90;;
11222;SDS011;5668;52.012;8.724;2022-08-07T16:58:28;1.10;;;1.00;;
11222;SDS011;5668;52.012;8.724;2022-08-07T17:01:33;1.33;;;0.70;;
11222;SDS011;5668;52.012;8.724;2022-08-07T17:04:08;2.22;;;1.00;;
11222;SDS011;5668;52.012;8.724;2022-08-07T17:06:52;0.95;;;0.88;;
11222;SDS011;5668;52.012;8.724;2022-08-07T17:09:27;1.02;;;0.80;;
11222;SDS011;5668;52.012;8.724;2022-08-07T17:12:04;0.90;;;0.80;;
11222;SDS011;5668;52.012;8.724;2022-08-07T17:14:48;0.77;;;0.70;;
11222;SDS011;5668;52.012;8.724;2022-08-07T19:11:45;1.67;;;1.45;;
11222;SDS011;5668;52.012;8.724;2022-08-07T19:17:46;2.85;;;1.40;;
11222;SDS011;5668;52.012;8.724;2022-08-07T19:20:28;1.85;;;1.30;;
11222;SDS011;5668;52.012;8.724;2022-08-07T19:23:23;1.95;;;1.30;;
11222;SDS011;5668;52.012;8.724;2022-08-07T19:29:29;1.83;;;1.40;;
11222;SDS011;5668;52.012;8.724;2022-08-07T19:32:03;2.03;;;1.52;;
11222;SDS011;5668;52.012;8.724;2022-08-07T19:34:32;2.28;;;1.52;;
11222;SDS011;5668;52.012;8.724;2022-08-07T19:37:01;2.05;;;1.42;;
11222;SDS011;5668;52.012;8.724;2022-08-07T19:42:52;1.27;;;1.17;;
11222;SDS011;5668;52.012;8.724;2022-08-07T19:45:26;1.40;;;1.20;;
11222;SDS011;5668;52.012;8.724;2022-08-07T19:47:57;1.90;;;1.42;;
11222;SDS011;5668;52.012;8.724;2022-08-07T19:50:25;2.92;;;1.40;;
11222;SDS011;5668;52.012;8.724;2022-08-07T19:52:53;2.45;;;1.73;;
11222;SDS011;5668;52.012;8.724;2022-08-07T19:55:21;1.90;;;1.52;;
11222;SDS011;5668;52.012;8.724;2022-08-07T19:57:50;4.53;;;1.50;;
11222;SDS011;5668;52.012;8.724;2022-08-07T20:00:20;1.50;;;1.40;;
11222;SDS011;5668;52.012;8.724;2022-08-07T20:02:51;2.33;;;1.50;;
11222;SDS011;5668;52.012;8.724;2022-08-07T20:05:22;1.80;;;1.67;;
11222;SDS011;5668;52.012;8.724;2022-08-07T20:07:53;1.58;;;1.40;;
11222;SDS011;5668;52.012;8.724;2022-08-07T20:10:27;1.65;;;1.40;;
11222;SDS011;5668;52.012;8.724;2022-08-07T20:12:58;1.52;;;1.27;;
11222;SDS011;5668;52.012;8.724;2022-08-07T20:15:31;2.22;;;1.70;;
11222;SDS011;5668;52.012;8.724;2022-08-07T20:18:02;1.38;;;1.27;;
11222;SDS011;5668;52.012;8.724;2022-08-07T20:20:33;1.70;;;1.60;;
11222;SDS011;5668;52.012;8.724;2022-08-07T20:23:02;1.38;;;1.20;;
11222;SDS011;5668;52.012;8.724;2022-08-07T20:25:32;4.28;;;1.70;;
11222;SDS011;5668;52.012;8.724;2022-08-07T20:28:04;2.42;;;1.50;;
11222;SDS011;5668;52.012;8.724;2022-08-07T20:30:37;2.13;;;1.45;;
11222;SDS011;5668;52.012;8.724;2022-08-07T20:33:08;1.70;;;1.60;;
11222;SDS011;5668;52.012;8.724;2022-08-07T20:35:40;2.25;;;1.63;;
11222;SDS011;5668;52.012;8.724;2022-08-07T20:38:10;1.63;;;1.40;;
11222;SDS011;5668;52.012;8.724;2022-08-07T20:40:44;2.58;;;1.55;;
11222;SDS011;5668;52.012;8.724;2022-08-07T20:43:14;2.13;;;1.50;;
11222;SDS011;5668;52.012;8.724;2022-08-07T20:45:48;3.38;;;1.60;;
11222;SDS011;5668;52.012;8.724;2022-08-07T20:48:19;1.73;;;1.60;;
11222;SDS011;5668;52.012;8.724;2022-08-07T20:50:52;2.10;;;1.63;;
11222;SDS011;5668;52.012;8.724;2022-08-07T20:53:20;1.80;;;1.40;;
11222;SDS011;5668;52.012;8.724;2022-08-07T20:55:50;1.90;;;1.70;;
11222;SDS011;5668;52.012;8.724;2022-08-07T20:58:24;1.50;;;1.40;;
11222;SDS011;5668;52.012;8.724;2022-08-07T21:01:02;1.98;;;1.60;;
11222;SDS011;5668;52.012;8.724;2022-08-07T21:03:38;1.80;;;1.50;;
11222;SDS011;5668;52.012;8.724;2022-08-07T21:06:09;1.65;;;1.30;;
11222;SDS011;5668;52.012;8.724;2022-08-07T21:08:45;2.28;;;1.60;;
11222;SDS011;5668;52.012;8.724;2022-08-07T21:11:23;1.67;;;1.40;;
11222;SDS011;5668;52.012;8.724;2022-08-07T21:13:52;1.40;;;1.30;;
11222;SDS011;5668;52.012;8.724;2022-08-07T21:16:24;2.28;;;1.40;;
11222;SDS011;5668;52.012;8.724;2022-08-07T21:18:56;2.05;;;1.55;;
11222;SDS011;5668;52.012;8.724;2022-08-07T21:21:27;2.15;;;1.50;;
11222;SDS011;5668;52.012;8.724;2022-08-07T21:23:59;2.10;;;1.55;;
11222;SDS011;5668;52.012;8.724;2022-08-07T21:26:33;1.67;;;1.58;;
11222;SDS011;5668;52.012;8.724;2022-08-07T21:29:10;2.00;;;1.60;;
11222;SDS011;5668;52.012;8.724;2022-08-07T21:31:45;1.50;;;1.38;;
11222;SDS011;5668;52.012;8.724;2022-08-07T21:34:21;2.00;;;1.67;;
11222;SDS011;5668;52.012;8.724;2022-08-07T21:36:55;2.88;;;1.70;;
11222;SDS011;5668;52.012;8.724;2022-08-07T21:39:29;2.40;;;1.60;;
11222;SDS011;5668;52.012;8.724;2022-08-07T21:42:13;4.05;;;1.85;;
11222;SDS011;5668;52.012;8.724;2022-08-07T21:44:47;1.98;;;1.73;;
11222;SDS011;5668;52.012;8.724;2022-08-07T21:47:21;2.00;;;1.73;;
11222;SDS011;5668;52.012;8.724;2022-08-07T21:49:56;1.67;;;1.58;;
11222;SDS011;5668;52.012;8.724;2022-08-07T21:52:35;1.70;;;1.60;;
11222;SDS011;5668;52.012;8.724;2022-08-07T21:55:11;2.58;;;1.75;;
11222;SDS011;5668;52.012;8.724;2022-08-07T21:57:49;1.95;;;1.67;;
11222;SDS011;5668;52.012;8.724;2022-08-07T22:00:31;1.65;;;1.55;;
11222;SDS011;5668;52.012;8.724;2022-08-07T22:03:07;3.05;;;1.55;;
11222;SDS011;5668;52.012;8.724;2022-08-07T22:05:39;1.88;;;1.50;;
11222;SDS011;5668;52.012;8.724;2022-08-07T22:08:15;2.90;;;1.77;;
11222;SDS011;5668;52.012;8.724;2022-08-07T22:10:46;2.15;;;1.60;;
11222;SDS011;5668;52.012;8.724;2022-08-07T22:13:17;2.00;;;1.80;;
11222;SDS011;5668;52.012;8.724;2022-08-07T22:15:49;1.80;;;1.60;;
11222;SDS011;5668;52.012;8.724;2022-08-07T22:18:27;2.38;;;1.67;;
11222;SDS011;5668;52.012;8.724;2022-08-07T22:21:05;2.85;;;2.00;;
11222;SDS011;5668;52.012;8.724;2022-08-07T22:23:41;2.42;;;1.60;;
11222;SDS011;5668;52.012;8.724;2022-08-07T22:26:14;2.95;;;1.80;;
11222;SDS011;5668;52.012;8.724;2022-08-07T22:28:45;2.95;;;1.75;;
11222;SDS011;5668;52.012;8.724;2022-08-07T22:31:21;2.10;;;1.90;;
11222;SDS011;5668;52.012;8.724;2022-08-07T22:33:58;2.05;;;1.80;;
11222;SDS011;5668;52.012;8.724;2022-08-07T22:36:34;2.25;;;2.05;;
11222;SDS011;5668;52.012;8.724;2022-08-07T22:39:12;1.85;;;1.75;;
11222;SDS011;5668;52.012;8.724;2022-08-07T22:41:48;1.90;;;1.80;;
11222;SDS011;5668;52.012;8.724;2022-08-07T22:44:23;2.28;;;2.08;;
11222;SDS011;5668;52.012;8.724;2022-08-07T22:50:10;3.05;;;2.40;;
11222;SDS011;5668;52.012;8.724;2022-08-07T22:53:10;2.35;;;2.10;;